Latest Coastal Weather Observations for Avalon

IDV60701

Issued at 11:35 pm EST Sunday 20 April 2014 (issued every 10 minutes, with the page automatically refreshed every 10 minutes)

About coastal observations | Map of coastal stations | Coastal observations for VIC | Marine services | Other Formats
Station Details ID: 087113 Name: AVALON AIRPORT Lat: -38.03 Lon: 144.48 Height: 10.6 m
Data from the previous 72 hours. | See also: Recent months at Avalon
Date/Time
EST
Temp

°C
Wind Pressure Rain
since 9am
mm
Weather Cloud Vis
km
Sea
Height
m
Swell
Dir
 
Speed
knots
Gust
knots
hPa Trend Height
m
Period
s
Dir
20/11:30pm 15.7 N 10 14 1017.0 - 0.0 - Cloudy 10 - - - -
20/11:00pm 14.8 NNW 5 7 1017.3 - 0.0 - Cloudy 10 - - - -
20/10:30pm 15.4 NW 5 8 1017.5 - 0.0 - Cloudy 10 - - - -
20/10:00pm 13.7 WSW 3 4 1017.7 - 0.0 - Cloudy 10 - - - -
20/09:30pm 14.9 W 4 5 1017.5 - 0.0 - Partly cloudy 10 - - - -
20/09:00pm 15.1 N 7 9 1017.4 - 0.0 - Mostly cloudy 10 - - - -
20/08:30pm 15.5 N 8 9 1017.3 - 0.0 - Partly cloudy 10 - - - -
20/08:00pm 15.4 N 8 10 1017.3 - 0.0 - Cloudy 10 - - - -
20/07:30pm 14.9 N 5 6 1017.1 - 0.0 - Partly cloudy 10 - - - -
20/07:00pm 15.3 N 6 6 1016.9 - 0.0 - Partly cloudy 10 - - - -
20/06:30pm 16.0 N 6 6 1016.7 - 0.0 - Cloudy 10 - - - -
20/06:00pm 16.1 N 4 5 1016.5 - 0.0 - Mostly clear 10 - - - -
20/05:30pm 17.2 NW 5 7 1016.2 - 0.0 - Partly cloudy 10 - - - -
20/05:00pm 18.6 WNW 9 12 1016.1 - 0.0 - Partly cloudy 10 - - - -
20/04:30pm 18.7 WNW 9 11 1015.9 - 0.0 - Partly cloudy 10 - - - -
20/04:00pm 18.5 WNW 9 13 1015.8 - 0.0 - Partly cloudy 10 - - - -
20/03:30pm 19.8 NW 12 16 1015.7 - 0.0 - - 10 - - - -
20/03:00pm 20.2 WNW 13 18 1015.6 - 0.0 - Mostly clear 10 - - - -
20/02:30pm 20.4 W 15 21 1015.6 - 0.0 - Partly cloudy 10 - - - -
20/02:00pm 19.3 W 13 18 1015.7 - 0.0 - Partly cloudy 10 - - - -
20/01:30pm 19.1 WNW 13 17 1015.7 - 0.0 - Cloudy 10 - - - -
20/01:00pm 19.2 WNW 14 21 1016.1 - 0.0 - Partly cloudy 10 - - - -
20/12:30pm 19.6 WNW 16 22 1016.2 - 0.0 - Partly cloudy 10 - - - -
20/12:00pm 19.3 WNW 16 21 1016.8 - 0.0 - Partly cloudy 10 - - - -
20/11:30am 19.1 WNW 15 21 1017.0 - 0.0 - Partly cloudy 10 - - - -
20/11:00am 17.2 WNW 16 22 1017.3 - 0.0 - Partly cloudy 10 - - - -
20/10:30am 16.9 WNW 15 22 1017.4 - 0.0 - Cloudy 10 - - - -
20/10:00am 17.3 NW 13 17 1017.6 - 0.0 - Partly cloudy 10 - - - -
20/09:30am 16.6 WNW 16 21 1017.6 - 0.0 - - 10 - - - -
20/09:00am 15.8 NW 9 12 1017.7 - 0.0 - Mostly clear 10 - - - -
20/08:30am 14.4 NNW 9 11 1017.6 - 0.0 - Cloudy 10 - - - -
20/08:00am 13.4 NNW 7 8 1017.5 - 0.0 - Cloudy 10 - - - -
20/07:30am 12.6 NNW 7 9 1017.4 - 0.0 - Cloudy 10 - - - -
20/07:00am 12.0 N 5 6 1017.0 - 0.0 - Cloudy 10 - - - -
20/06:30am 11.5 N 4 5 1017.0 - 0.0 - Cloudy 10 - - - -
20/06:00am 11.3 NNW 4 4 1017.0 - 0.0 - Cloudy 10 - - - -
20/05:30am 11.9 NW 4 5 1016.8 - 0.0 - Cloudy 10 - - - -
20/05:00am 11.8 NW 5 6 1016.6 - 0.0 - Cloudy 10 - - - -
20/04:30am 11.9 NW 5 6 1016.6 - 0.0 - Cloudy 10 - - - -
20/04:00am 11.9 NNW 5 6 1016.6 - 0.0 - Cloudy 10 - - - -
20/03:30am 12.1 WNW 7 9 1016.9 - 0.0 - Cloudy 10 - - - -
20/03:00am 12.3 NW 7 8 1016.8 - 0.0 - Cloudy 10 - - - -
20/02:30am 12.3 NW 6 8 1016.9 - 0.0 - Cloudy 10 - - - -
20/02:00am 12.1 NW 5 6 1017.2 - 0.0 - Cloudy 10 - - - -
20/01:30am 12.0 NW 5 6 1017.3 - 0.0 - Cloudy 10 - - - -
20/01:00am 11.9 NNW 4 5 1017.3 - 0.0 - Cloudy 10 - - - -
20/12:30am 12.2 NW 4 5 1017.4 - 0.0 - Cloudy 10 - - - -
20/12:00am 12.2 NW 3 4 1017.5 - 0.0 - Cloudy 10 - - - -
 
Date/Time
EST
Temp

°C
Wind Pressure Rain
since 9am
mm
Weather Cloud Vis
km
Sea
Height
m
Swell
Dir
 
Speed
knots
Gust
knots
hPa Trend Height
m
Period
s
Dir
19/11:30pm 12.3 NW 3 4 1017.8 - 0.0 - Cloudy 10 - - - -
19/11:00pm 11.9 N 4 5 1018.0 - 0.0 - Cloudy 10 - - - -
19/10:30pm 12.4 NW 5 6 1018.3 - 0.0 - Cloudy 10 - - - -
19/10:00pm 12.4 WNW 5 5 1018.4 - 0.0 - Cloudy 10 - - - -
19/09:30pm 12.3 NW 5 6 1018.6 - 0.0 - Cloudy 10 - - - -
19/09:00pm 11.5 NW 5 5 1018.5 - 0.0 - Cloudy 10 - - - -
19/08:30pm 12.9 S 1 5 1018.6 - 0.0 - Partly cloudy 10 - - - -
19/08:00pm 13.0 CALM 0 1 1018.8 - 0.0 - Partly cloudy 10 - - - -
19/07:30pm 13.2 S 3 4 1018.8 - 0.0 - Cloudy 10 - - - -
19/07:00pm 13.4 S 4 4 1018.8 - 0.0 - Cloudy 10 - - - -
19/06:30pm 13.7 S 4 4 1018.6 - 0.0 - Partly cloudy 10 - - - -
19/06:00pm 14.2 SSE 2 4 1018.5 - 0.0 - Cloudy 10 - - - -
19/05:30pm 14.7 S 4 6 1018.5 - 0.0 - Partly cloudy 10 - - - -
19/05:00pm 15.4 W 7 9 1018.5 - 0.0 - Cloudy 10 - - - -
19/04:30pm 15.5 WSW 7 8 1018.6 - 0.0 - Partly cloudy 10 - - - -
19/04:00pm 15.7 WSW 6 9 1018.7 - 0.0 - Cloudy 10 - - - -
19/03:30pm 15.5 W 8 11 1018.8 - 0.0 - Cloudy 10 - - - -
19/03:00pm 15.8 W 11 16 1018.7 - 0.0 - Cloudy 10 - - - -
19/02:30pm 15.6 W 10 12 1018.8 - 0.0 - Partly cloudy 10 - - - -
19/02:00pm 15.9 WNW 12 17 1019.0 - 0.0 - Partly cloudy 10 - - - -
19/01:30pm 16.4 SW 11 14 1019.1 - 0.0 - Partly cloudy 10 - - - -
19/01:00pm 16.1 SW 11 16 1019.5 - 0.0 - Partly cloudy 10 - - - -
19/12:30pm 15.3 WSW 15 20 1020.0 - 0.0 - Partly cloudy 10 - - - -
19/12:00pm 15.5 WSW 14 18 1020.2 - 0.0 - Mostly cloudy 10 - - - -
19/11:30am 16.4 WSW 13 19 1020.4 - 0.0 - Partly cloudy 10 - - - -
19/11:00am 16.1 WSW 13 19 1020.6 - 0.0 - Partly cloudy 10 - - - -
19/10:30am 15.2 W 12 16 1020.6 - 0.0 - Cloudy 10 - - - -
19/10:00am 14.9 W 15 20 1020.8 - 0.0 - Cloudy 10 - - - -
19/09:30am 13.4 W 11 13 1020.8 - 0.0 - Partly cloudy 10 - - - -
19/09:00am 12.7 W 10 13 1020.8 - 0.2 - Cloudy 10 - - - -
19/08:30am 11.8 W 6 8 1020.6 - 0.2 - Partly cloudy 10 - - - -
19/08:00am 11.2 WNW 8 11 1020.5 - 0.2 - Partly cloudy 10 - - - -
19/07:30am 10.9 WNW 8 9 1020.2 - 0.2 - Cloudy 10 - - - -
19/07:00am 10.5 W 9 11 1019.9 - 0.2 - Partly cloudy 10 - - - -
19/06:30am 10.8 WNW 11 14 1019.6 - 0.2 - Partly cloudy 10 - - - -
19/06:00am 10.9 WSW 9 11 1019.7 - 0.2 - Cloudy 10 - - - -
19/05:30am 11.0 WSW 8 10 1019.4 - 0.2 - Cloudy 10 - - - -
19/05:00am 10.3 W 8 11 1019.2 - 0.2 - Partly cloudy 10 - - - -
19/04:30am 11.2 W 10 14 1019.2 - 0.2 - Cloudy 10 - - - -
19/04:00am 10.9 W 10 13 1019.3 - 0.2 - Cloudy 10 - - - -
19/03:30am 10.6 W 9 13 1019.4 - 0.2 - Cloudy 10 - - - -
19/03:00am 11.1 W 7 9 1019.4 - 0.2 - Cloudy 10 - - - -
19/02:30am 11.3 W 8 11 1019.7 - 0.2 - Partly cloudy 10 - - - -
19/02:00am 11.1 W 8 10 1019.8 - 0.2 - Partly cloudy 10 - - - -
19/01:30am 10.8 W 8 11 1020.0 - 0.2 - Partly cloudy 10 - - - -
19/01:00am 10.3 WNW 9 11 1020.0 - 0.2 - Partly cloudy 10 - - - -
19/12:30am 10.3 W 9 11 1020.1 - 0.2 - Partly cloudy 10 - - - -
19/12:00am 11.1 WNW 9 12 1020.2 - 0.2 - Cloudy 10 - - - -
 
Date/Time
EST
Temp

°C
Wind Pressure Rain
since 9am
mm
Weather Cloud Vis
km
Sea
Height
m
Swell
Dir
 
Speed
knots
Gust
knots
hPa Trend Height
m
Period
s
Dir
18/11:30pm 10.9 W 9 11 1020.2 - 0.2 - Cloudy 10 - - - -
18/11:00pm 10.2 W 10 11 1020.2 - 0.2 - Partly cloudy 10 - - - -
18/10:30pm 10.2 W 8 9 1020.2 - 0.2 - Partly cloudy 10 - - - -
18/10:00pm 11.1 W 10 13 1020.2 - 0.2 - Partly cloudy 10 - - - -
18/09:30pm 11.5 W 13 17 1020.3 - 0.2 - Partly cloudy 10 - - - -
18/09:00pm 11.9 W 9 11 1020.2 - 0.2 - Mostly cloudy 10 - - - -
18/08:30pm 12.9 W 9 12 1020.0 - 0.2 - Cloudy 10 - - - -
18/08:00pm 13.0 W 9 13 1019.8 - 0.2 - Partly cloudy 10 - - - -
18/07:30pm 12.4 W 10 13 1019.7 - 0.2 - Partly cloudy 10 - - - -
18/07:00pm 13.3 W 11 15 1019.4 - 0.2 - Partly cloudy 10 - - - -
18/06:30pm 14.4 WSW 14 19 1019.1 - 0.2 - Partly cloudy 10 - - - -
18/06:00pm 15.0 WSW 18 24 1018.9 - 0.2 - Mostly cloudy 10 - - - -
18/05:30pm 15.6 SW 11 17 1018.7 - 0.2 - Partly cloudy 10 - - - -
18/05:00pm 16.6 SW 12 19 1018.2 - 0.2 - Partly cloudy 10 - - - -
18/04:30pm 17.3 SW 18 21 1017.8 - 0.2 - Partly cloudy 10 - - - -
18/04:00pm 17.4 SSW 14 17 1017.6 - 0.2 - Partly cloudy 10 - - - -
18/03:30pm 16.2 SSW 14 18 1017.5 - 0.2 - Partly cloudy 10 - - - -
18/03:00pm 17.0 SSW 15 21 1017.2 - 0.2 - Cloudy 10 - - - -
18/02:30pm 17.0 SSW 16 21 1016.9 - 0.2 - Partly cloudy 10 - - - -
18/02:00pm 18.6 SW 15 23 1016.6 - 0.2 - Partly cloudy 10 - - - -
18/01:30pm 17.0 SW 16 22 1016.5 - 0.2 - - 10 - - - -
18/01:00pm 16.2 SW 15 21 1016.5 - 0.2 - Partly cloudy 10 - - - -
18/12:30pm 15.9 SW 18 22 1016.6 - 0.2 - Partly cloudy 10 - - - -
18/12:00pm 14.9 SW 16 21 1016.7 - 0.2 - Cloudy 10 - - - -
18/11:30am 15.4 W 15 20 1016.5 - 0.2 - Partly cloudy 10 - - - -
18/11:00am 15.3 W 15 20 1016.3 - 0.0 - Partly cloudy 10 - - - -
18/10:30am 15.1 W 18 23 1015.9 - 0.0 - Partly cloudy 10 - - - -
18/10:09am 15.3 W 19 26 1015.7 - 0.0 - Partly cloudy 10 - - - -
18/10:00am 15.2 WNW 23 35 1015.5 - 0.0 - Partly cloudy 7 - - - -
18/09:58am 15.2 WNW 25 35 1015.5 - 0.0 - Partly cloudy 5 - - - -
18/09:51am 15.5 WNW 29 35 1015.4 - 0.0 - Partly cloudy 6 - - - -
18/09:46am 16.8 WNW 31 35 1015.2 - 0.0 - Partly cloudy 10 - - - -
18/09:39am 18.5 WNW 17 29 1014.8 - 0.0 - Partly cloudy 10 - - - -
18/09:30am 18.1 NW 14 18 1014.9 - 0.0 - Partly cloudy 10 - - - -
18/09:00am 15.8 W 9 13 1015.3 - 0.0 - Cloudy 10 - - - -
18/08:30am 14.8 WNW 11 16 1015.1 - 0.0 - Partly cloudy 10 - - - -
18/08:00am 12.4 SW 2 4 1014.7 - 0.0 - Partly cloudy 10 - - - -
18/07:30am 11.6 CALM 0 0 1014.6 - 0.0 - Cloudy 10 - - - -
18/07:00am 10.1 NE 3 5 1014.5 - 0.0 - Partly cloudy 10 - - - -
18/06:30am 10.2 CALM 0 0 1014.7 - 0.0 - Partly cloudy 10 - - - -
18/06:00am 10.2 N 3 4 1014.5 - 0.0 - Mostly clear 10 - - - -
18/05:30am 9.6 NNE 4 5 1014.5 - 0.0 - Partly cloudy 10 - - - -
18/05:00am 8.6 CALM 0 0 1014.9 - 0.0 - Partly cloudy 10 - - - -
18/04:30am 10.0 CALM 0 0 1015.3 - 0.0 - Cloudy 10 - - - -
18/04:00am 10.7 N 4 7 1015.4 - 0.0 - - 10 - - - -
18/03:30am 11.9 N 3 4 1015.5 - 0.0 - - 9 - - - -
18/03:00am 12.3 NNW 3 4 1015.6 - 0.0 - - 10 - - - -
18/02:30am 12.4 NW 3 4 1015.9 - 0.0 - - 10 - - - -
18/02:00am 12.3 NW 2 4 1016.2 - 0.0 - - 10 - - - -
18/01:30am 12.7 NW 6 7 1016.4 - 0.0 - - 10 - - - -
18/01:05am 13.0 WNW 8 10 1016.8 - 0.0 - Partly cloudy 10 - - - -
18/01:00am 12.9 WNW 9 10 1016.9 - 0.0 - Partly cloudy 10 - - - -
18/12:35am 12.5 WNW 8 10 1017.0 - 0.0 - Partly cloudy 10 - - - -
18/12:30am 12.2 NW 8 10 1017.1 - 0.0 - Partly cloudy 10 - - - -
18/12:00am 12.6 NW 6 8 1017.1 - 0.0 - - 10 - - - -

Other Formats:

Comma delimited format used in spreadsheet applications
http://www.bom.gov.au/fwo/IDV60701/IDV60701.94854.axf

JavaScript Object Notation format (JSON) in row-major order
http://www.bom.gov.au/fwo/IDV60701/IDV60701.94854.json